sensor_id;sensor_type;location;lat;lon;timestamp;pressure;altitude;pressure_sealevel;temperature;humidity
54600;BME280;40500;51.084;16.958;2022-07-23T00:01:01;100343.87;;;20.53;59.46
54600;BME280;40500;51.084;16.958;2022-07-23T00:03:28;100348.94;;;20.40;59.53
54600;BME280;40500;51.084;16.958;2022-07-23T00:05:56;100352.05;;;20.38;59.76
54600;BME280;40500;51.084;16.958;2022-07-23T00:08:24;100353.61;;;20.36;59.73
54600;BME280;40500;51.084;16.958;2022-07-23T00:10:51;100353.09;;;20.38;59.74
54600;BME280;40500;51.084;16.958;2022-07-23T00:13:19;100349.75;;;20.44;59.77
54600;BME280;40500;51.084;16.958;2022-07-23T00:15:47;100349.89;;;20.48;59.82
54600;BME280;40500;51.084;16.958;2022-07-23T00:18:14;100349.80;;;20.49;59.70
54600;BME280;40500;51.084;16.958;2022-07-23T00:20:42;100350.92;;;20.48;59.79
54600;BME280;40500;51.084;16.958;2022-07-23T00:23:12;100352.21;;;20.48;59.86
54600;BME280;40500;51.084;16.958;2022-07-23T00:25:40;100353.53;;;20.46;59.98
54600;BME280;40500;51.084;16.958;2022-07-23T00:28:07;100358.53;;;20.46;59.95
54600;BME280;40500;51.084;16.958;2022-07-23T00:30:35;100360.55;;;20.45;59.93
54600;BME280;40500;51.084;16.958;2022-07-23T00:33:06;100355.41;;;20.44;60.04
54600;BME280;40500;51.084;16.958;2022-07-23T00:35:36;100354.76;;;20.41;60.13
54600;BME280;40500;51.084;16.958;2022-07-23T00:38:05;100356.67;;;20.29;60.30
54600;BME280;40500;51.084;16.958;2022-07-23T00:40:33;100360.48;;;20.21;60.41
54600;BME280;40500;51.084;16.958;2022-07-23T00:43:02;100364.02;;;20.03;60.65
54600;BME280;40500;51.084;16.958;2022-07-23T00:45:30;100359.50;;;20.00;60.88
54600;BME280;40500;51.084;16.958;2022-07-23T00:47:59;100361.34;;;20.03;60.97
54600;BME280;40500;51.084;16.958;2022-07-23T00:50:27;100354.98;;;20.02;61.07
54600;BME280;40500;51.084;16.958;2022-07-23T00:52:55;100357.45;;;20.03;61.09
54600;BME280;40500;51.084;16.958;2022-07-23T00:55:23;100358.40;;;20.02;61.16
54600;BME280;40500;51.084;16.958;2022-07-23T00:57:51;100355.95;;;19.91;61.29
54600;BME280;40500;51.084;16.958;2022-07-23T01:00:21;100353.94;;;19.72;61.55
54600;BME280;40500;51.084;16.958;2022-07-23T01:02:49;100355.44;;;19.61;61.86
54600;BME280;40500;51.084;16.958;2022-07-23T01:05:17;100352.52;;;19.55;62.11
54600;BME280;40500;51.084;16.958;2022-07-23T01:07:49;100352.46;;;19.50;62.21
54600;BME280;40500;51.084;16.958;2022-07-23T01:10:23;100351.20;;;19.44;62.23
54600;BME280;40500;51.084;16.958;2022-07-23T01:13:01;100347.11;;;19.37;62.37
54600;BME280;40500;51.084;16.958;2022-07-23T01:15:30;100349.59;;;19.31;62.41
54600;BME280;40500;51.084;16.958;2022-07-23T01:17:58;100356.92;;;19.26;62.54
54600;BME280;40500;51.084;16.958;2022-07-23T01:20:26;100359.73;;;19.24;62.76
54600;BME280;40500;51.084;16.958;2022-07-23T01:22:54;100361.11;;;19.24;62.83
54600;BME280;40500;51.084;16.958;2022-07-23T01:25:22;100361.25;;;19.22;62.81
54600;BME280;40500;51.084;16.958;2022-07-23T01:27:50;100357.82;;;19.19;62.91
54600;BME280;40500;51.084;16.958;2022-07-23T01:30:18;100350.80;;;19.18;62.94
54600;BME280;40500;51.084;16.958;2022-07-23T01:32:46;100350.23;;;19.15;63.06
54600;BME280;40500;51.084;16.958;2022-07-23T01:35:14;100356.45;;;19.15;63.24
54600;BME280;40500;51.084;16.958;2022-07-23T01:37:41;100358.34;;;19.16;63.28
54600;BME280;40500;51.084;16.958;2022-07-23T01:40:09;100353.83;;;19.07;63.41
54600;BME280;40500;51.084;16.958;2022-07-23T01:42:37;100353.05;;;19.02;63.63
54600;BME280;40500;51.084;16.958;2022-07-23T01:45:10;100354.94;;;19.00;63.72
54600;BME280;40500;51.084;16.958;2022-07-23T01:47:38;100360.44;;;18.96;63.98
54600;BME280;40500;51.084;16.958;2022-07-23T01:50:07;100356.70;;;18.93;64.04
54600;BME280;40500;51.084;16.958;2022-07-23T01:52:35;100355.91;;;18.91;64.13
54600;BME280;40500;51.084;16.958;2022-07-23T01:55:03;100353.17;;;18.89;64.12
54600;BME280;40500;51.084;16.958;2022-07-23T01:57:33;100348.85;;;18.79;64.16
54600;BME280;40500;51.084;16.958;2022-07-23T02:00:00;100351.98;;;18.70;64.15
54600;BME280;40500;51.084;16.958;2022-07-23T02:02:28;100343.91;;;18.61;64.24
54600;BME280;40500;51.084;16.958;2022-07-23T02:04:56;100338.89;;;18.48;64.41
54600;BME280;40500;51.084;16.958;2022-07-23T02:07:23;100336.64;;;18.40;64.62
54600;BME280;40500;51.084;16.958;2022-07-23T02:09:51;100337.55;;;18.35;64.91
54600;BME280;40500;51.084;16.958;2022-07-23T02:12:18;100333.67;;;18.32;65.09
54600;BME280;40500;51.084;16.958;2022-07-23T02:14:46;100331.60;;;18.27;65.29
54600;BME280;40500;51.084;16.958;2022-07-23T02:17:14;100336.52;;;18.24;65.44
54600;BME280;40500;51.084;16.958;2022-07-23T02:19:42;100335.16;;;18.23;65.75
54600;BME280;40500;51.084;16.958;2022-07-23T02:22:10;100335.04;;;18.18;65.80
54600;BME280;40500;51.084;16.958;2022-07-23T02:24:37;100332.81;;;18.12;65.95
54600;BME280;40500;51.084;16.958;2022-07-23T02:27:05;100337.60;;;18.16;65.99
54600;BME280;40500;51.084;16.958;2022-07-23T02:29:32;100337.32;;;18.18;66.12
54600;BME280;40500;51.084;16.958;2022-07-23T02:32:00;100335.23;;;18.22;66.20
54600;BME280;40500;51.084;16.958;2022-07-23T02:34:28;100330.59;;;18.26;66.21
54600;BME280;40500;51.084;16.958;2022-07-23T02:36:55;100324.06;;;18.25;66.14
54600;BME280;40500;51.084;16.958;2022-07-23T02:39:23;100325.68;;;18.17;66.13
54600;BME280;40500;51.084;16.958;2022-07-23T02:41:51;100324.76;;;18.11;66.42
54600;BME280;40500;51.084;16.958;2022-07-23T02:44:19;100318.48;;;18.12;66.59
54600;BME280;40500;51.084;16.958;2022-07-23T02:46:47;100306.25;;;18.16;66.72
54600;BME280;40500;51.084;16.958;2022-07-23T02:49:14;100304.00;;;18.22;66.69
54600;BME280;40500;51.084;16.958;2022-07-23T02:51:42;100310.02;;;18.26;66.78
54600;BME280;40500;51.084;16.958;2022-07-23T02:54:10;100307.52;;;18.30;66.87
54600;BME280;40500;51.084;16.958;2022-07-23T02:56:38;100308.95;;;18.33;66.86
54600;BME280;40500;51.084;16.958;2022-07-23T02:59:05;100315.52;;;18.33;67.00
54600;BME280;40500;51.084;16.958;2022-07-23T03:01:34;100316.80;;;18.25;67.07
54600;BME280;40500;51.084;16.958;2022-07-23T03:04:01;100316.98;;;18.25;67.20
54600;BME280;40500;51.084;16.958;2022-07-23T03:06:29;100315.56;;;18.25;67.21
54600;BME280;40500;51.084;16.958;2022-07-23T03:08:57;100314.40;;;18.24;67.19
54600;BME280;40500;51.084;16.958;2022-07-23T03:11:25;100313.77;;;18.22;67.32
54600;BME280;40500;51.084;16.958;2022-07-23T03:13:53;100323.93;;;18.24;67.41
54600;BME280;40500;51.084;16.958;2022-07-23T03:16:21;100320.28;;;18.30;67.44
54600;BME280;40500;51.084;16.958;2022-07-23T03:18:48;100317.73;;;18.31;67.45
54600;BME280;40500;51.084;16.958;2022-07-23T03:21:16;100316.39;;;18.23;67.50
54600;BME280;40500;51.084;16.958;2022-07-23T03:23:44;100319.05;;;18.15;67.64
54600;BME280;40500;51.084;16.958;2022-07-23T03:26:11;100320.17;;;18.10;67.84
54600;BME280;40500;51.084;16.958;2022-07-23T03:28:39;100321.73;;;18.08;67.86
54600;BME280;40500;51.084;16.958;2022-07-23T03:31:06;100327.45;;;18.06;68.02
54600;BME280;40500;51.084;16.958;2022-07-23T03:33:34;100330.77;;;18.00;68.22
54600;BME280;40500;51.084;16.958;2022-07-23T03:36:02;100328.23;;;17.97;68.25
54600;BME280;40500;51.084;16.958;2022-07-23T03:38:31;100325.88;;;17.95;68.45
54600;BME280;40500;51.084;16.958;2022-07-23T03:40:59;100325.85;;;17.92;68.60
54600;BME280;40500;51.084;16.958;2022-07-23T03:43:29;100325.08;;;17.93;68.93
54600;BME280;40500;51.084;16.958;2022-07-23T03:45:57;100321.43;;;17.95;69.18
54600;BME280;40500;51.084;16.958;2022-07-23T03:48:24;100325.04;;;18.02;69.29
54600;BME280;40500;51.084;16.958;2022-07-23T03:50:52;100323.31;;;18.07;69.27
54600;BME280;40500;51.084;16.958;2022-07-23T03:53:20;100328.45;;;18.15;69.37
54600;BME280;40500;51.084;16.958;2022-07-23T03:55:48;100336.64;;;18.22;69.40
54600;BME280;40500;51.084;16.958;2022-07-23T03:58:15;100334.80;;;18.23;69.61
54600;BME280;40500;51.084;16.958;2022-07-23T04:00:43;100333.77;;;18.26;69.69
54600;BME280;40500;51.084;16.958;2022-07-23T04:03:13;100337.95;;;18.31;69.76
54600;BME280;40500;51.084;16.958;2022-07-23T04:05:41;100338.61;;;18.36;69.97
54600;BME280;40500;51.084;16.958;2022-07-23T04:08:09;100331.85;;;18.40;70.09
54600;BME280;40500;51.084;16.958;2022-07-23T04:10:37;100323.00;;;18.47;70.10
54600;BME280;40500;51.084;16.958;2022-07-23T04:13:04;100317.17;;;18.53;70.19
54600;BME280;40500;51.084;16.958;2022-07-23T04:15:32;100314.26;;;18.62;70.28
54600;BME280;40500;51.084;16.958;2022-07-23T04:17:59;100306.93;;;18.70;70.25
54600;BME280;40500;51.084;16.958;2022-07-23T04:20:29;100302.52;;;18.76;70.10
54600;BME280;40500;51.084;16.958;2022-07-23T04:22:57;100296.84;;;18.84;70.11
54600;BME280;40500;51.084;16.958;2022-07-23T04:25:24;100291.31;;;18.91;70.21
54600;BME280;40500;51.084;16.958;2022-07-23T04:27:52;100284.92;;;19.02;70.42
54600;BME280;40500;51.084;16.958;2022-07-23T04:30:20;100281.92;;;19.11;70.67
54600;BME280;40500;51.084;16.958;2022-07-23T04:32:47;100281.48;;;19.20;70.86
54600;BME280;40500;51.084;16.958;2022-07-23T04:35:15;100281.46;;;19.29;70.67
54600;BME280;40500;51.084;16.958;2022-07-23T04:37:43;100286.98;;;19.39;70.55
54600;BME280;40500;51.084;16.958;2022-07-23T04:40:12;100282.42;;;19.48;70.43
54600;BME280;40500;51.084;16.958;2022-07-23T04:42:40;100274.95;;;19.58;70.28
54600;BME280;40500;51.084;16.958;2022-07-23T04:45:09;100274.37;;;19.68;70.25
54600;BME280;40500;51.084;16.958;2022-07-23T04:47:40;100269.36;;;19.79;70.13
54600;BME280;40500;51.084;16.958;2022-07-23T04:50:08;100265.72;;;19.90;69.98
54600;BME280;40500;51.084;16.958;2022-07-23T04:52:36;100259.93;;;20.01;69.64
54600;BME280;40500;51.084;16.958;2022-07-23T04:55:06;100251.48;;;20.12;69.50
54600;BME280;40500;51.084;16.958;2022-07-23T04:57:34;100242.67;;;20.23;69.28
54600;BME280;40500;51.084;16.958;2022-07-23T05:00:01;100235.59;;;20.31;69.08
54600;BME280;40500;51.084;16.958;2022-07-23T05:02:29;100232.27;;;20.40;68.64
54600;BME280;40500;51.084;16.958;2022-07-23T05:04:57;100228.91;;;20.48;68.27
54600;BME280;40500;51.084;16.958;2022-07-23T05:07:24;100228.27;;;20.56;68.01
54600;BME280;40500;51.084;16.958;2022-07-23T05:09:52;100229.04;;;20.64;67.67
54600;BME280;40500;51.084;16.958;2022-07-23T05:12:20;100224.63;;;20.73;67.44
54600;BME280;40500;51.084;16.958;2022-07-23T05:14:47;100223.79;;;20.80;67.22
54600;BME280;40500;51.084;16.958;2022-07-23T05:17:15;100218.61;;;20.89;67.01
54600;BME280;40500;51.084;16.958;2022-07-23T05:19:43;100217.90;;;20.98;66.87
54600;BME280;40500;51.084;16.958;2022-07-23T05:22:10;100217.13;;;21.05;66.48
54600;BME280;40500;51.084;16.958;2022-07-23T05:24:38;100209.86;;;21.13;66.28
54600;BME280;40500;51.084;16.958;2022-07-23T05:27:05;100210.30;;;21.20;65.83
54600;BME280;40500;51.084;16.958;2022-07-23T05:29:33;100207.85;;;21.28;65.51
54600;BME280;40500;51.084;16.958;2022-07-23T05:32:01;100203.67;;;21.34;65.25
54600;BME280;40500;51.084;16.958;2022-07-23T05:34:29;100205.91;;;21.42;64.98
54600;BME280;40500;51.084;16.958;2022-07-23T05:36:56;100198.27;;;21.47;64.79
54600;BME280;40500;51.084;16.958;2022-07-23T05:39:24;100194.45;;;21.54;64.37
54600;BME280;40500;51.084;16.958;2022-07-23T05:41:52;100189.20;;;21.61;63.97
54600;BME280;40500;51.084;16.958;2022-07-23T05:44:20;100187.87;;;21.67;63.80
54600;BME280;40500;51.084;16.958;2022-07-23T05:46:48;100187.35;;;21.75;63.62
54600;BME280;40500;51.084;16.958;2022-07-23T05:49:15;100189.55;;;21.82;63.48
54600;BME280;40500;51.084;16.958;2022-07-23T05:51:43;100192.47;;;21.89;63.17
54600;BME280;40500;51.084;16.958;2022-07-23T05:54:13;100193.17;;;21.95;62.83
54600;BME280;40500;51.084;16.958;2022-07-23T05:56:40;100196.77;;;22.03;62.76
54600;BME280;40500;51.084;16.958;2022-07-23T05:59:08;100196.70;;;22.11;62.66
54600;BME280;40500;51.084;16.958;2022-07-23T06:01:36;100192.45;;;22.19;62.55
54600;BME280;40500;51.084;16.958;2022-07-23T06:04:04;100191.70;;;22.25;62.43
54600;BME280;40500;51.084;16.958;2022-07-23T06:06:34;100192.66;;;22.32;62.31
54600;BME280;40500;51.084;16.958;2022-07-23T06:09:02;100197.44;;;22.38;61.97
54600;BME280;40500;51.084;16.958;2022-07-23T06:11:30;100199.67;;;22.44;61.64
54600;BME280;40500;51.084;16.958;2022-07-23T06:13:58;100204.20;;;22.49;61.14
54600;BME280;40500;51.084;16.958;2022-07-23T06:16:25;100208.95;;;22.53;60.72
54600;BME280;40500;51.084;16.958;2022-07-23T06:18:53;100203.55;;;22.56;60.56
54600;BME280;40500;51.084;16.958;2022-07-23T06:21:21;100204.69;;;22.60;60.50
54600;BME280;40500;51.084;16.958;2022-07-23T06:24:08;100205.50;;;22.63;60.54
54600;BME280;40500;51.084;16.958;2022-07-23T06:26:36;100204.70;;;22.67;60.35
54600;BME280;40500;51.084;16.958;2022-07-23T06:29:03;100201.80;;;22.70;59.94
54600;BME280;40500;51.084;16.958;2022-07-23T06:31:32;100198.52;;;22.77;59.92
54600;BME280;40500;51.084;16.958;2022-07-23T06:33:59;100191.52;;;22.85;59.78
54600;BME280;40500;51.084;16.958;2022-07-23T06:36:27;100191.45;;;22.94;59.67
54600;BME280;40500;51.084;16.958;2022-07-23T06:38:55;100179.14;;;23.01;59.24
54600;BME280;40500;51.084;16.958;2022-07-23T06:41:22;100178.80;;;23.08;59.09
54600;BME280;40500;51.084;16.958;2022-07-23T06:43:50;100170.13;;;23.18;58.89
54600;BME280;40500;51.084;16.958;2022-07-23T06:46:18;100172.28;;;23.27;58.97
54600;BME280;40500;51.084;16.958;2022-07-23T06:48:46;100162.71;;;23.38;58.63
54600;BME280;40500;51.084;16.958;2022-07-23T06:51:14;100157.70;;;23.48;58.25
54600;BME280;40500;51.084;16.958;2022-07-23T06:53:41;100151.02;;;23.59;58.22
54600;BME280;40500;51.084;16.958;2022-07-23T06:56:09;100155.31;;;23.68;57.97
54600;BME280;40500;51.084;16.958;2022-07-23T06:58:37;100155.61;;;23.77;57.78
54600;BME280;40500;51.084;16.958;2022-07-23T07:01:04;100158.55;;;23.85;57.65
54600;BME280;40500;51.084;16.958;2022-07-23T07:03:32;100157.16;;;23.92;57.31
54600;BME280;40500;51.084;16.958;2022-07-23T07:06:00;100158.23;;;23.99;57.39
54600;BME280;40500;51.084;16.958;2022-07-23T07:08:27;100159.30;;;24.06;57.14
54600;BME280;40500;51.084;16.958;2022-07-23T07:10:55;100156.45;;;24.13;57.04
54600;BME280;40500;51.084;16.958;2022-07-23T07:13:23;100156.70;;;24.19;56.80
54600;BME280;40500;51.084;16.958;2022-07-23T07:15:50;100156.02;;;24.23;56.70
54600;BME280;40500;51.084;16.958;2022-07-23T07:18:18;100155.75;;;24.27;56.63
54600;BME280;40500;51.084;16.958;2022-07-23T07:20:46;100159.05;;;24.30;56.36
54600;BME280;40500;51.084;16.958;2022-07-23T07:23:13;100157.80;;;24.33;56.20
54600;BME280;40500;51.084;16.958;2022-07-23T07:25:43;100150.23;;;24.36;56.00
54600;BME280;40500;51.084;16.958;2022-07-23T07:28:10;100151.11;;;24.40;55.94
54600;BME280;40500;51.084;16.958;2022-07-23T07:30:38;100149.13;;;24.45;55.82
54600;BME280;40500;51.084;16.958;2022-07-23T07:33:06;100145.90;;;24.50;55.68
54600;BME280;40500;51.084;16.958;2022-07-23T07:35:33;100140.92;;;24.55;55.56
54600;BME280;40500;51.084;16.958;2022-07-23T07:38:01;100139.26;;;24.60;55.40
54600;BME280;40500;51.084;16.958;2022-07-23T07:40:28;100143.17;;;24.65;55.36
54600;BME280;40500;51.084;16.958;2022-07-23T07:43:01;100142.30;;;24.69;55.24
54600;BME280;40500;51.084;16.958;2022-07-23T07:45:30;100139.56;;;24.74;55.00
54600;BME280;40500;51.084;16.958;2022-07-23T07:47:58;100138.97;;;24.79;54.84
54600;BME280;40500;51.084;16.958;2022-07-23T07:50:26;100135.63;;;24.85;54.68
54600;BME280;40500;51.084;16.958;2022-07-23T07:52:54;100130.67;;;24.92;54.63
54600;BME280;40500;51.084;16.958;2022-07-23T07:55:21;100134.01;;;24.99;54.60
54600;BME280;40500;51.084;16.958;2022-07-23T07:57:49;100129.89;;;25.05;54.32
54600;BME280;40500;51.084;16.958;2022-07-23T08:00:17;100128.34;;;25.11;54.17
54600;BME280;40500;51.084;16.958;2022-07-23T08:02:48;100122.91;;;25.18;54.17
54600;BME280;40500;51.084;16.958;2022-07-23T08:05:19;100121.16;;;25.30;54.17
54600;BME280;40500;51.084;16.958;2022-07-23T08:07:54;100120.10;;;25.40;53.84
54600;BME280;40500;51.084;16.958;2022-07-23T08:10:22;100123.33;;;25.49;53.58
54600;BME280;40500;51.084;16.958;2022-07-23T08:12:50;100126.49;;;25.58;53.20
54600;BME280;40500;51.084;16.958;2022-07-23T08:15:21;100130.53;;;25.66;52.91
54600;BME280;40500;51.084;16.958;2022-07-23T08:17:49;100130.71;;;25.74;52.68
54600;BME280;40500;51.084;16.958;2022-07-23T08:20:19;100131.48;;;25.82;52.55
54600;BME280;40500;51.084;16.958;2022-07-23T08:22:49;100129.34;;;25.91;52.29
54600;BME280;40500;51.084;16.958;2022-07-23T08:25:21;100129.09;;;26.02;52.14
54600;BME280;40500;51.084;16.958;2022-07-23T08:27:49;100133.62;;;26.13;52.03
54600;BME280;40500;51.084;16.958;2022-07-23T08:30:17;100135.48;;;26.20;51.37
54600;BME280;40500;51.084;16.958;2022-07-23T08:32:54;100135.89;;;26.26;51.14
54600;BME280;40500;51.084;16.958;2022-07-23T08:35:27;100136.59;;;26.32;50.86
54600;BME280;40500;51.084;16.958;2022-07-23T08:37:56;100135.06;;;26.39;50.85
54600;BME280;40500;51.084;16.958;2022-07-23T08:40:26;100125.23;;;26.49;50.73
54600;BME280;40500;51.084;16.958;2022-07-23T08:42:54;100123.02;;;26.60;50.66
54600;BME280;40500;51.084;16.958;2022-07-23T08:45:23;100119.86;;;26.70;50.38
54600;BME280;40500;51.084;16.958;2022-07-23T08:47:53;100109.21;;;26.79;50.25
54600;BME280;40500;51.084;16.958;2022-07-23T08:50:22;100113.70;;;26.87;50.07
54600;BME280;40500;51.084;16.958;2022-07-23T08:52:51;100114.41;;;26.95;49.64
54600;BME280;40500;51.084;16.958;2022-07-23T08:55:21;100105.10;;;26.99;49.63
54600;BME280;40500;51.084;16.958;2022-07-23T08:57:51;100110.27;;;27.06;49.20
54600;BME280;40500;51.084;16.958;2022-07-23T09:00:21;100111.24;;;27.12;49.07
54600;BME280;40500;51.084;16.958;2022-07-23T09:02:49;100112.09;;;27.21;48.95
54600;BME280;40500;51.084;16.958;2022-07-23T09:05:19;100106.89;;;27.31;49.12
54600;BME280;40500;51.084;16.958;2022-07-23T09:08:10;100105.63;;;27.43;49.12
54600;BME280;40500;51.084;16.958;2022-07-23T09:10:50;100102.88;;;27.57;48.99
54600;BME280;40500;51.084;16.958;2022-07-23T09:13:36;100101.91;;;27.70;48.80
54600;BME280;40500;51.084;16.958;2022-07-23T09:16:06;100104.55;;;27.84;48.44
54600;BME280;40500;51.084;16.958;2022-07-23T09:18:36;100103.15;;;27.94;47.72
54600;BME280;40500;51.084;16.958;2022-07-23T09:21:16;100109.50;;;28.03;47.59
54600;BME280;40500;51.084;16.958;2022-07-23T09:23:47;100106.16;;;28.10;47.34
54600;BME280;40500;51.084;16.958;2022-07-23T09:26:23;100108.12;;;28.16;47.18
54600;BME280;40500;51.084;16.958;2022-07-23T09:28:56;100105.61;;;28.21;46.94
54600;BME280;40500;51.084;16.958;2022-07-23T09:31:26;100104.69;;;28.25;46.83
54600;BME280;40500;51.084;16.958;2022-07-23T09:34:07;100103.86;;;28.26;46.61
54600;BME280;40500;51.084;16.958;2022-07-23T09:36:35;100099.72;;;28.30;46.36
54600;BME280;40500;51.084;16.958;2022-07-23T09:39:05;100099.11;;;28.34;46.26
54600;BME280;40500;51.084;16.958;2022-07-23T09:41:41;100107.35;;;28.37;46.17
54600;BME280;40500;51.084;16.958;2022-07-23T09:44:13;100114.05;;;28.38;45.93
54600;BME280;40500;51.084;16.958;2022-07-23T09:46:41;100116.43;;;28.34;45.81
54600;BME280;40500;51.084;16.958;2022-07-23T09:49:18;100126.02;;;28.28;45.78
54600;BME280;40500;51.084;16.958;2022-07-23T09:51:51;100130.08;;;28.22;45.99
54600;BME280;40500;51.084;16.958;2022-07-23T09:54:39;100139.25;;;28.12;46.23
54600;BME280;40500;51.084;16.958;2022-07-23T09:57:08;100153.78;;;28.01;46.38
54600;BME280;40500;51.084;16.958;2022-07-23T09:59:41;100159.59;;;27.91;46.64
54600;BME280;40500;51.084;16.958;2022-07-23T10:02:10;100158.19;;;27.76;46.79
54600;BME280;40500;51.084;16.958;2022-07-23T10:04:39;100151.83;;;27.49;47.21
54600;BME280;40500;51.084;16.958;2022-07-23T10:07:08;100147.39;;;27.18;47.98
54600;BME280;40500;51.084;16.958;2022-07-23T10:09:39;100145.77;;;26.98;48.52
54600;BME280;40500;51.084;16.958;2022-07-23T10:12:10;100150.98;;;26.78;49.30
54600;BME280;40500;51.084;16.958;2022-07-23T10:14:43;100163.27;;;26.44;49.83
54600;BME280;40500;51.084;16.958;2022-07-23T10:17:12;100172.37;;;26.19;50.71
54600;BME280;40500;51.084;16.958;2022-07-23T10:19:40;100180.34;;;25.96;51.76
54600;BME280;40500;51.084;16.958;2022-07-23T10:22:10;100184.17;;;25.74;53.63
54600;BME280;40500;51.084;16.958;2022-07-23T10:30:41;100175.88;;;24.79;59.41
54600;BME280;40500;51.084;16.958;2022-07-23T10:33:27;100170.22;;;24.60;60.16
54600;BME280;40500;51.084;16.958;2022-07-23T10:36:03;100167.97;;;24.55;60.56
54600;BME280;40500;51.084;16.958;2022-07-23T10:38:40;100169.17;;;24.55;61.03
54600;BME280;40500;51.084;16.958;2022-07-23T10:41:10;100184.88;;;24.43;61.66
54600;BME280;40500;51.084;16.958;2022-07-23T10:43:41;100193.18;;;24.40;62.07
54600;BME280;40500;51.084;16.958;2022-07-23T10:46:25;100204.04;;;24.36;62.22
54600;BME280;40500;51.084;16.958;2022-07-23T10:49:20;100228.03;;;24.36;62.32
54600;BME280;40500;51.084;16.958;2022-07-23T10:52:24;100233.91;;;24.37;62.16
54600;BME280;40500;51.084;16.958;2022-07-23T10:54:54;100227.73;;;24.35;61.41
54600;BME280;40500;51.084;16.958;2022-07-23T10:57:23;100244.75;;;24.35;61.22
54600;BME280;40500;51.084;16.958;2022-07-23T11:00:14;100226.92;;;24.30;61.44
54600;BME280;40500;51.084;16.958;2022-07-23T11:02:45;100220.45;;;24.23;61.65
54600;BME280;40500;51.084;16.958;2022-07-23T11:05:14;100225.01;;;24.22;61.85
54600;BME280;40500;51.084;16.958;2022-07-23T11:08:15;100220.60;;;24.24;62.06
54600;BME280;40500;51.084;16.958;2022-07-23T11:10:46;100216.58;;;24.22;62.50
54600;BME280;40500;51.084;16.958;2022-07-23T11:13:28;100210.17;;;24.19;62.54
54600;BME280;40500;51.084;16.958;2022-07-23T11:16:15;100207.10;;;24.15;62.81
54600;BME280;40500;51.084;16.958;2022-07-23T11:19:05;100199.39;;;24.08;63.53
54600;BME280;40500;51.084;16.958;2022-07-23T11:21:47;100190.95;;;24.01;64.06
54600;BME280;40500;51.084;16.958;2022-07-23T11:24:20;100182.20;;;23.97;64.51
54600;BME280;40500;51.084;16.958;2022-07-23T11:27:00;100179.41;;;23.93;64.88
54600;BME280;40500;51.084;16.958;2022-07-23T11:29:42;100178.92;;;23.90;65.24
54600;BME280;40500;51.084;16.958;2022-07-23T11:32:30;100171.18;;;23.88;65.24
54600;BME280;40500;51.084;16.958;2022-07-23T11:35:00;100160.51;;;23.86;65.70
54600;BME280;40500;51.084;16.958;2022-07-23T11:37:35;100151.77;;;23.80;66.32
54600;BME280;40500;51.084;16.958;2022-07-23T11:40:07;100151.84;;;23.72;66.74
54600;BME280;40500;51.084;16.958;2022-07-23T11:42:36;100150.99;;;23.59;67.51
54600;BME280;40500;51.084;16.958;2022-07-23T11:45:07;100155.50;;;23.51;67.85
54600;BME280;40500;51.084;16.958;2022-07-23T11:47:35;100156.56;;;23.52;68.43
54600;BME280;40500;51.084;16.958;2022-07-23T11:50:05;100157.77;;;23.55;68.69
54600;BME280;40500;51.084;16.958;2022-07-23T11:52:34;100153.84;;;23.59;68.83
54600;BME280;40500;51.084;16.958;2022-07-23T11:55:04;100162.70;;;23.63;68.77
54600;BME280;40500;51.084;16.958;2022-07-23T11:57:33;100161.27;;;23.65;69.09
54600;BME280;40500;51.084;16.958;2022-07-23T12:00:04;100154.85;;;23.67;69.39
54600;BME280;40500;51.084;16.958;2022-07-23T12:02:33;100144.50;;;23.69;69.36
54600;BME280;40500;51.084;16.958;2022-07-23T12:05:01;100140.20;;;23.74;69.43
54600;BME280;40500;51.084;16.958;2022-07-23T12:07:30;100137.89;;;23.84;69.50
54600;BME280;40500;51.084;16.958;2022-07-23T12:10:00;100134.50;;;23.93;69.70
54600;BME280;40500;51.084;16.958;2022-07-23T12:12:35;100136.96;;;24.03;69.38
54600;BME280;40500;51.084;16.958;2022-07-23T12:15:05;100144.08;;;24.18;69.40
54600;BME280;40500;51.084;16.958;2022-07-23T12:17:35;100143.58;;;24.31;69.26
54600;BME280;40500;51.084;16.958;2022-07-23T12:20:06;100143.85;;;24.44;68.97
54600;BME280;40500;51.084;16.958;2022-07-23T12:22:36;100142.27;;;24.53;68.80
54600;BME280;40500;51.084;16.958;2022-07-23T12:25:07;100144.77;;;24.60;68.67
54600;BME280;40500;51.084;16.958;2022-07-23T12:27:35;100147.64;;;24.69;68.82
54600;BME280;40500;51.084;16.958;2022-07-23T12:30:17;100154.66;;;24.83;68.98
54600;BME280;40500;51.084;16.958;2022-07-23T12:32:47;100149.66;;;25.00;68.92
54600;BME280;40500;51.084;16.958;2022-07-23T12:35:15;100142.31;;;25.16;68.76
54600;BME280;40500;51.084;16.958;2022-07-23T12:37:44;100138.38;;;25.31;68.55
54600;BME280;40500;51.084;16.958;2022-07-23T12:40:27;100135.34;;;25.49;68.34
54600;BME280;40500;51.084;16.958;2022-07-23T12:42:57;100134.16;;;25.65;67.83
54600;BME280;40500;51.084;16.958;2022-07-23T12:45:26;100130.05;;;25.82;67.34
54600;BME280;40500;51.084;16.958;2022-07-23T12:48:05;100130.30;;;26.01;67.12
54600;BME280;40500;51.084;16.958;2022-07-23T12:50:43;100127.41;;;26.22;66.84
54600;BME280;40500;51.084;16.958;2022-07-23T12:53:14;100128.23;;;26.44;66.29
54600;BME280;40500;51.084;16.958;2022-07-23T12:55:56;100124.27;;;26.67;65.94
54600;BME280;40500;51.084;16.958;2022-07-23T12:58:46;100126.39;;;27.00;65.11
54600;BME280;40500;51.084;16.958;2022-07-23T13:01:27;100127.23;;;27.27;64.64